Time;durP1;ratioP1;P1;durP2;ratioP2;P2;SDS_P1;SDS_P2;PMS_P1;PMS_P2;Temp;Humidity;BMP_temperature;BMP_pressure;BME280_temperature;BME280_humidity;BME280_pressure;Samples;Min_cycle;Max_cycle;Signal;HPM_P1;HPM_P2
2023/03/09 00:02:30;;;;;;;2.17;0.80;;;24.30;52.80;;;;;;5070863;28;20186;-62
2023/03/09 00:05:01;;;;;;;1.00;0.77;;;24.30;52.80;;;;;;5070832;28;20258;-62
2023/03/09 00:07:34;;;;;;;1.70;0.95;;;24.30;52.80;;;;;;5070699;28;20206;-62
2023/03/09 00:10:04;;;;;;;1.20;0.75;;;24.30;52.80;;;;;;5071292;28;20726;-62
2023/03/09 00:12:35;;;;;;;1.55;0.80;;;24.30;52.80;;;;;;5071255;28;20669;-63
2023/03/09 00:15:06;;;;;;;1.20;0.80;;;24.40;52.80;;;;;;5070965;28;20842;-62
2023/03/09 00:17:36;;;;;;;1.77;0.80;;;24.40;52.80;;;;;;5070944;28;20209;-63
2023/03/09 00:20:17;;;;;;;1.20;0.73;;;24.40;52.80;;;;;;5071082;28;20205;-62
2023/03/09 00:22:50;;;;;;;1.55;0.90;;;24.40;52.80;;;;;;5071412;28;20244;-62
2023/03/09 00:25:21;;;;;;;0.93;0.80;;;24.40;52.80;;;;;;5070951;28;20253;-62
2023/03/09 00:27:53;;;;;;;2.08;1.10;;;24.40;52.80;;;;;;5070876;28;20229;-62
2023/03/09 00:30:24;;;;;;;0.90;0.70;;;24.50;52.80;;;;;;5071721;28;20195;-62
2023/03/09 00:32:56;;;;;;;1.15;0.68;;;24.50;52.80;;;;;;5071202;28;20206;-63
2023/03/09 00:35:26;;;;;;;1.65;0.80;;;24.50;52.80;;;;;;5070663;28;20726;-62
2023/03/09 00:37:59;;;;;;;0.93;0.77;;;24.50;52.80;;;;;;5070703;28;20198;-62
2023/03/09 00:40:30;;;;;;;0.77;0.73;;;24.50;52.80;;;;;;5071520;28;20390;-62
2023/03/09 00:43:03;;;;;;;0.88;0.65;;;24.50;52.80;;;;;;5071083;28;20195;-63
2023/03/09 00:45:34;;;;;;;0.80;0.75;;;24.50;52.80;;;;;;5070055;28;20223;-63
2023/03/09 00:48:04;;;;;;;1.40;0.60;;;24.60;52.80;;;;;;5070603;28;20202;-63
2023/03/09 00:50:35;;;;;;;1.42;0.90;;;24.60;52.80;;;;;;5070225;28;20240;-63
2023/03/09 00:53:08;;;;;;;0.85;0.65;;;24.60;52.80;;;;;;5070294;28;20573;-63
2023/03/09 00:55:38;;;;;;;1.48;0.80;;;24.60;52.80;;;;;;5070767;28;20219;-63
2023/03/09 00:58:09;;;;;;;0.88;0.75;;;24.60;52.90;;;;;;5050472;28;20196;-62
2023/03/09 01:00:41;;;;;;;1.15;0.80;;;24.70;52.90;;;;;;5050422;28;20196;-63
2023/03/09 01:03:12;;;;;;;1.27;0.70;;;24.70;52.90;;;;;;5050584;28;20572;-63
2023/03/09 01:05:42;;;;;;;1.10;0.70;;;24.70;52.90;;;;;;5050006;28;20230;-63
2023/03/09 01:08:15;;;;;;;1.05;0.80;;;24.70;52.90;;;;;;5053460;28;20206;-60
2023/03/09 01:10:46;;;;;;;2.05;0.90;;;24.70;52.90;;;;;;5054402;28;20551;-63
2023/03/09 01:13:17;;;;;;;1.75;0.80;;;24.70;52.90;;;;;;5053945;28;20199;-62
2023/03/09 01:15:47;;;;;;;1.55;0.70;;;24.80;53.00;;;;;;5053833;28;20597;-63
2023/03/09 01:18:18;;;;;;;0.60;0.60;;;24.80;53.00;;;;;;5054255;28;20691;-62
2023/03/09 01:20:49;;;;;;;1.10;0.75;;;24.80;53.00;;;;;;5054365;28;20200;-63
2023/03/09 01:23:21;;;;;;;0.77;0.60;;;24.80;52.90;;;;;;5054280;28;20199;-64
2023/03/09 01:25:52;;;;;;;1.33;0.82;;;24.90;53.00;;;;;;5055009;28;20234;-63
2023/03/09 01:28:23;;;;;;;0.68;0.60;;;24.90;53.00;;;;;;5074063;28;20647;-64
2023/03/09 01:30:53;;;;;;;2.05;0.90;;;24.90;52.90;;;;;;5073621;28;20187;-63
2023/03/09 01:33:24;;;;;;;1.52;0.70;;;24.90;52.90;;;;;;5073732;28;20198;-62
2023/03/09 01:35:55;;;;;;;0.60;0.50;;;24.90;52.80;;;;;;5073484;28;20698;-62
2023/03/09 01:38:27;;;;;;;1.45;0.70;;;25.00;52.90;;;;;;5073110;28;20195;-63
2023/03/09 01:40:58;;;;;;;0.60;0.50;;;25.00;52.90;;;;;;5073324;28;20195;-63
2023/03/09 01:43:39;;;;;;;2.25;0.80;;;25.00;52.80;;;;;;5073394;28;20206;-63
2023/03/09 01:46:48;;;;;;;0.95;0.80;;;25.00;52.80;;;;;;5074057;28;20233;-63
2023/03/09 01:49:27;;;;;;;1.70;0.77;;;25.00;52.80;;;;;;5073588;28;20199;-62
2023/03/09 01:52:04;;;;;;;2.00;0.70;;;25.10;52.80;;;;;;5073189;28;20560;-63
2023/03/09 01:54:42;;;;;;;0.90;0.80;;;25.10;52.90;;;;;;5071905;28;20271;-63
2023/03/09 01:57:16;;;;;;;1.50;0.88;;;25.10;52.90;;;;;;5073208;28;20206;-63
2023/03/09 01:59:48;;;;;;;1.52;0.80;;;25.10;52.80;;;;;;5073071;28;20197;-63
2023/03/09 02:02:19;;;;;;;0.88;0.70;;;25.10;52.80;;;;;;5073289;28;20210;-63
2023/03/09 02:04:53;;;;;;;1.23;0.60;;;25.20;52.80;;;;;;5073063;28;20222;-62
2023/03/09 02:07:26;;;;;;;0.93;0.60;;;25.20;52.80;;;;;;5073137;28;20195;-61
2023/03/09 02:10:04;;;;;;;1.67;0.85;;;25.20;52.80;;;;;;5073167;28;20195;-62
2023/03/09 02:12:36;;;;;;;1.02;0.60;;;25.20;52.80;;;;;;5073542;28;20198;-63
2023/03/09 02:15:07;;;;;;;1.17;0.70;;;25.20;52.80;;;;;;5072976;28;20215;-62
2023/03/09 02:17:38;;;;;;;1.67;0.80;;;25.20;52.80;;;;;;5072004;28;20313;-62
2023/03/09 02:20:21;;;;;;;0.52;0.50;;;25.30;52.90;;;;;;5072142;28;20194;-62
2023/03/09 02:22:53;;;;;;;2.08;0.80;;;25.30;52.90;;;;;;5073064;28;20205;-63
2023/03/09 02:25:33;;;;;;;1.50;0.90;;;25.30;53.50;;;;;;5072394;28;20233;-61
2023/03/09 02:28:07;;;;;;;0.90;0.50;;;25.30;52.80;;;;;;5072321;28;20205;-62
2023/03/09 02:30:42;;;;;;;1.48;0.77;;;25.30;52.80;;;;;;5073055;28;20186;-63
2023/03/09 02:33:14;;;;;;;0.85;0.60;;;25.30;52.80;;;;;;5072756;28;20679;-63
2023/03/09 02:35:45;;;;;;;1.02;0.60;;;25.30;52.80;;;;;;5072595;28;20580;-63
2023/03/09 02:38:16;;;;;;;1.13;0.70;;;25.40;52.80;;;;;;5072878;28;20317;-63
2023/03/09 02:40:47;;;;;;;0.90;0.60;;;25.40;52.80;;;;;;5072644;28;20201;-63
2023/03/09 02:43:22;;;;;;;0.95;0.50;;;25.40;52.80;;;;;;5072248;28;20446;-62
2023/03/09 02:45:53;;;;;;;1.48;0.60;;;25.40;52.80;;;;;;5071733;28;20226;-63
2023/03/09 02:48:24;;;;;;;1.17;0.65;;;25.40;52.70;;;;;;5072115;28;20761;-62
2023/03/09 02:50:54;;;;;;;1.20;0.90;;;25.40;52.70;;;;;;5071779;28;20201;-61
2023/03/09 02:53:25;;;;;;;0.70;0.55;;;25.40;52.70;;;;;;5072429;28;20199;-63
2023/03/09 02:55:56;;;;;;;1.00;0.63;;;25.40;52.70;;;;;;5072081;28;20215;-63
2023/03/09 02:58:29;;;;;;;1.17;0.60;;;25.50;52.70;;;;;;5071389;28;20199;-62
2023/03/09 03:01:00;;;;;;;0.77;0.70;;;25.50;52.70;;;;;;5071914;28;20203;-62
2023/03/09 03:03:30;;;;;;;0.85;0.50;;;25.50;52.70;;;;;;5071880;28;20209;-63
2023/03/09 03:06:01;;;;;;;1.13;0.60;;;25.50;52.70;;;;;;5071280;28;20223;-63
2023/03/09 03:08:32;;;;;;;1.15;0.60;;;25.50;52.70;;;;;;5071574;28;20195;-63
2023/03/09 03:11:03;;;;;;;0.80;0.63;;;25.50;52.70;;;;;;5071952;28;20199;-62
2023/03/09 03:13:36;;;;;;;1.83;0.73;;;25.50;52.60;;;;;;5071876;28;20230;-62
2023/03/09 03:16:07;;;;;;;1.17;0.55;;;25.50;52.70;;;;;;5071622;28;20222;-62
2023/03/09 03:18:38;;;;;;;1.05;0.60;;;25.50;52.70;;;;;;5071382;28;20290;-63
2023/03/09 03:21:09;;;;;;;0.75;0.50;;;25.50;52.60;;;;;;5071397;28;20199;-62
2023/03/09 03:23:39;;;;;;;0.93;0.73;;;25.60;52.60;;;;;;5071624;28;20195;-62
2023/03/09 03:26:11;;;;;;;0.65;0.57;;;25.60;52.60;;;;;;5071040;28;20234;-62
2023/03/09 03:28:44;;;;;;;0.60;0.45;;;25.60;52.60;;;;;;5071495;28;20202;-63
2023/03/09 03:31:15;;;;;;;0.70;0.60;;;25.60;52.60;;;;;;5071562;28;20467;-63
2023/03/09 03:33:46;;;;;;;1.15;0.80;;;25.50;52.50;;;;;;5071513;28;20204;-62
2023/03/09 03:36:16;;;;;;;1.65;0.47;;;25.60;52.60;;;;;;5071222;28;20234;-63
2023/03/09 03:38:47;;;;;;;1.08;0.50;;;25.60;52.60;;;;;;5071538;28;20194;-63
2023/03/09 03:41:18;;;;;;;1.35;0.50;;;25.60;52.60;;;;;;5071079;28;20201;-63
2023/03/09 03:43:50;;;;;;;0.55;0.50;;;25.60;52.60;;;;;;5071562;28;20277;-63
2023/03/09 03:46:21;;;;;;;0.70;0.55;;;25.60;52.60;;;;;;5070385;28;20241;-62
2023/03/09 03:48:52;;;;;;;1.05;0.50;;;25.60;52.60;;;;;;5070483;28;20195;-61
2023/03/09 03:51:22;;;;;;;0.82;0.50;;;25.60;52.60;;;;;;5071240;28;20190;-62
2023/03/09 03:53:53;;;;;;;1.13;0.60;;;25.60;52.60;;;;;;5071188;28;20195;-63
2023/03/09 03:56:24;;;;;;;1.08;0.60;;;25.60;52.60;;;;;;5071007;28;20223;-62
2023/03/09 03:58:56;;;;;;;1.25;0.60;;;25.60;52.60;;;;;;5070993;28;20191;-61
2023/03/09 04:01:27;;;;;;;0.98;0.47;;;25.60;52.60;;;;;;5071050;28;20194;-63
2023/03/09 04:03:58;;;;;;;1.20;0.70;;;25.60;52.50;;;;;;5071393;28;20693;-61
2023/03/09 04:06:28;;;;;;;0.77;0.40;;;25.60;52.60;;;;;;5070960;28;20608;-60
2023/03/09 04:09:00;;;;;;;0.50;0.50;;;25.60;52.60;;;;;;5071345;28;20194;-62
2023/03/09 04:11:31;;;;;;;0.88;0.60;;;25.60;52.50;;;;;;5071305;28;20206;-60
2023/03/09 04:14:04;;;;;;;0.65;0.52;;;25.60;52.50;;;;;;5071304;28;20201;-62
2023/03/09 04:16:37;;;;;;;0.52;0.52;;;25.60;52.50;;;;;;5071040;28;20258;-63
2023/03/09 04:19:08;;;;;;;1.58;0.60;;;25.60;52.60;;;;;;5070774;28;20191;-62
2023/03/09 04:21:38;;;;;;;0.68;0.50;;;25.60;52.50;;;;;;5071312;28;20191;-62
2023/03/09 04:24:09;;;;;;;0.77;0.60;;;25.60;52.60;;;;;;5071011;28;20202;-62
2023/03/09 04:26:40;;;;;;;0.80;0.65;;;25.60;52.60;;;;;;5070710;28;20569;-62
2023/03/09 04:29:12;;;;;;;0.75;0.60;;;25.60;52.50;;;;;;5070970;28;20716;-60
2023/03/09 04:31:43;;;;;;;0.85;0.55;;;25.60;52.50;;;;;;5071144;28;20194;-62
2023/03/09 04:34:14;;;;;;;0.68;0.55;;;25.60;52.60;;;;;;5070570;28;20202;-63
2023/03/09 04:36:45;;;;;;;0.52;0.50;;;25.60;52.60;;;;;;5070658;28;20199;-62
2023/03/09 04:39:16;;;;;;;0.50;0.40;;;25.60;52.50;;;;;;5070723;28;20555;-62
2023/03/09 04:41:46;;;;;;;1.42;0.55;;;25.60;52.50;;;;;;5069727;28;20199;-61
2023/03/09 04:44:19;;;;;;;0.50;0.40;;;25.60;52.50;;;;;;5066286;28;20203;-62
2023/03/09 04:46:50;;;;;;;0.90;0.50;;;25.60;52.50;;;;;;5065670;28;20227;-60
2023/03/09 04:49:20;;;;;;;0.68;0.68;;;25.70;52.60;;;;;;5065726;28;20206;-60
2023/03/09 04:51:51;;;;;;;0.88;0.70;;;25.70;52.60;;;;;;5066113;28;20207;-60
2023/03/09 04:54:22;;;;;;;0.60;0.50;;;25.60;52.50;;;;;;5065262;28;20602;-62
2023/03/09 04:56:52;;;;;;;1.55;0.70;;;25.70;52.60;;;;;;5066180;28;20784;-62
2023/03/09 04:59:25;;;;;;;0.43;0.43;;;25.70;52.60;;;;;;5066047;28;20199;-60
2023/03/09 05:01:56;;;;;;;1.00;0.60;;;25.60;52.50;;;;;;5074392;28;20202;-63
2023/03/09 05:04:26;;;;;;;0.50;0.40;;;25.60;52.50;;;;;;5074195;28;20205;-62
2023/03/09 05:06:57;;;;;;;0.80;0.40;;;25.60;52.50;;;;;;5074198;28;20614;-63
2023/03/09 05:09:28;;;;;;;0.98;0.70;;;25.70;52.60;;;;;;5074201;28;20201;-63
2023/03/09 05:11:58;;;;;;;0.80;0.50;;;25.70;52.60;;;;;;5074296;28;20201;-61
2023/03/09 05:14:32;;;;;;;1.20;0.70;;;25.70;52.50;;;;;;5075178;28;20564;-63
2023/03/09 05:17:03;;;;;;;1.00;0.50;;;25.70;52.50;;;;;;5073473;28;20202;-63
2023/03/09 05:19:36;;;;;;;0.75;0.50;;;25.70;52.50;;;;;;5073921;28;20256;-63
2023/03/09 05:22:07;;;;;;;1.10;0.68;;;25.70;52.50;;;;;;5073740;28;20199;-63
2023/03/09 05:24:37;;;;;;;0.60;0.50;;;25.70;52.50;;;;;;5073837;28;20226;-63
2023/03/09 05:27:08;;;;;;;0.63;0.40;;;25.70;52.50;;;;;;5073883;28;20750;-62
2023/03/09 05:29:41;;;;;;;0.90;0.70;;;25.70;52.50;;;;;;5074193;28;20199;-62
2023/03/09 05:32:11;;;;;;;0.70;0.40;;;25.70;52.50;;;;;;5069336;28;20210;-63
2023/03/09 05:34:42;;;;;;;0.93;0.68;;;25.70;52.50;;;;;;5058398;28;20691;-62
2023/03/09 05:37:13;;;;;;;0.70;0.63;;;25.70;52.50;;;;;;5055295;28;20210;-63
2023/03/09 05:39:43;;;;;;;0.90;0.50;;;25.70;52.50;;;;;;5056877;28;20192;-62
2023/03/09 05:42:14;;;;;;;0.50;0.50;;;25.70;52.40;;;;;;5066611;28;20187;-63
2023/03/09 05:44:47;;;;;;;1.05;0.40;;;25.70;52.40;;;;;;5073147;28;20686;-63
2023/03/09 05:47:17;;;;;;;0.88;0.50;;;25.80;52.40;;;;;;5071555;28;20242;-63
2023/03/09 05:49:50;;;;;;;2.22;0.95;;;25.70;52.30;;;;;;5073566;28;20195;-62
2023/03/09 05:52:21;;;;;;;1.30;0.77;;;25.70;52.30;;;;;;5073039;28;20195;-63
2023/03/09 05:54:52;;;;;;;2.60;1.13;;;25.80;52.40;;;;;;5073176;28;20481;-63
2023/03/09 05:57:22;;;;;;;2.53;1.60;;;25.80;52.30;;;;;;5072970;28;20397;-62
2023/03/09 05:59:55;;;;;;;3.67;2.15;;;25.80;52.20;;;;;;5072321;28;20195;-64
2023/03/09 06:02:26;;;;;;;2.80;1.83;;;25.80;52.20;;;;;;5072063;28;20286;-63
2023/03/09 06:04:56;;;;;;;2.38;2.05;;;25.80;52.20;;;;;;5072029;28;20493;-63
2023/03/09 06:07:27;;;;;;;3.70;2.42;;;25.80;52.20;;;;;;5071691;28;20218;-63
2023/03/09 06:09:58;;;;;;;3.25;2.05;;;25.80;52.20;;;;;;5072142;28;20198;-63
2023/03/09 06:12:29;;;;;;;5.22;2.80;;;25.80;52.10;;;;;;5071229;28;20203;-63
2023/03/09 06:15:02;;;;;;;4.28;2.53;;;25.80;52.10;;;;;;5071480;28;20215;-63
2023/03/09 06:17:33;;;;;;;5.00;3.05;;;25.70;52.00;;;;;;5072297;28;20194;-62
2023/03/09 06:20:04;;;;;;;5.40;3.38;;;25.80;52.10;;;;;;5071837;28;20195;-63
2023/03/09 06:22:34;;;;;;;4.53;3.45;;;25.70;51.90;;;;;;5071796;28;20199;-62
2023/03/09 06:25:05;;;;;;;5.88;3.90;;;25.70;51.90;;;;;;5071792;28;20210;-63
2023/03/09 06:27:37;;;;;;;6.22;3.90;;;25.70;52.50;;;;;;5071283;28;20874;-63
2023/03/09 06:30:11;;;;;;;6.57;3.97;;;25.70;51.90;;;;;;5071455;28;20195;-63
2023/03/09 06:32:42;;;;;;;5.45;3.42;;;25.70;51.90;;;;;;5070702;28;20286;-63
2023/03/09 06:35:13;;;;;;;5.93;4.00;;;25.70;51.90;;;;;;5070892;28;20599;-62
2023/03/09 06:37:43;;;;;;;6.97;4.07;;;25.70;51.90;;;;;;5071007;28;20209;-63
2023/03/09 06:40:15;;;;;;;7.65;4.50;;;25.70;51.90;;;;;;5071576;28;20665;-61
2023/03/09 06:42:46;;;;;;;5.60;3.80;;;25.70;51.90;;;;;;5071983;28;20199;-62
2023/03/09 06:45:20;;;;;;;8.57;4.45;;;25.70;51.90;;;;;;5071456;28;20275;-62
2023/03/09 06:47:51;;;;;;;6.88;4.72;;;25.70;51.90;;;;;;5071190;28;20248;-62
2023/03/09 06:50:22;;;;;;;7.55;4.85;;;25.70;51.90;;;;;;5071744;28;20217;-62
2023/03/09 06:52:52;;;;;;;7.28;4.82;;;25.70;51.80;;;;;;5070774;28;20202;-62
2023/03/09 06:55:23;;;;;;;8.30;5.10;;;25.70;51.70;;;;;;5071276;28;20222;-62
2023/03/09 06:57:54;;;;;;;7.82;5.50;;;25.70;51.60;;;;;;5072068;28;20203;-62
2023/03/09 07:00:27;;;;;;;9.80;5.80;;;25.70;51.60;;;;;;5071742;28;20277;-59
2023/03/09 07:02:58;;;;;;;9.70;5.63;;;25.60;51.40;;;;;;5072192;28;20260;-63
2023/03/09 07:05:29;;;;;;;8.80;5.47;;;25.60;51.40;;;;;;5071294;28;20226;-62
2023/03/09 07:08:00;;;;;;;8.95;5.38;;;25.60;51.40;;;;;;5072015;28;20226;-62
2023/03/09 07:10:31;;;;;;;6.82;4.55;;;25.60;51.40;;;;;;5071851;28;20191;-62
2023/03/09 07:13:01;;;;;;;8.25;4.72;;;25.60;51.50;;;;;;5071765;28;20206;-62
2023/03/09 07:15:34;;;;;;;7.82;5.07;;;25.60;51.50;;;;;;5071055;28;20230;-62
2023/03/09 07:18:05;;;;;;;7.40;4.80;;;25.60;51.50;;;;;;5071717;28;20547;-63
2023/03/09 07:20:35;;;;;;;10.13;5.28;;;25.60;51.40;;;;;;5071819;28;20195;-62
2023/03/09 07:23:06;;;;;;;8.60;5.07;;;25.60;51.40;;;;;;5071677;28;20528;-62
2023/03/09 07:25:37;;;;;;;8.25;4.97;;;25.60;51.40;;;;;;5071427;28;20219;-63
2023/03/09 07:28:09;;;;;;;7.57;5.15;;;25.60;51.30;;;;;;5071304;28;20234;-63
2023/03/09 07:30:42;;;;;;;7.13;4.72;;;25.50;51.20;;;;;;5071809;28;20195;-62
2023/03/09 07:33:13;;;;;;;7.18;4.82;;;25.50;51.30;;;;;;5071609;28;20685;-62
2023/03/09 07:35:44;;;;;;;9.70;4.55;;;25.50;51.30;;;;;;5071356;28;20219;-61
2023/03/09 07:38:15;;;;;;;6.72;4.80;;;25.50;51.30;;;;;;5071478;28;20203;-63
2023/03/09 07:40:45;;;;;;;6.45;4.53;;;25.50;51.30;;;;;;5071755;28;20242;-62
2023/03/09 07:43:16;;;;;;;8.38;4.72;;;25.50;51.30;;;;;;5070751;28;20197;-61
2023/03/09 07:45:48;;;;;;;7.90;4.88;;;25.50;51.30;;;;;;5071102;28;20214;-62
2023/03/09 07:48:19;;;;;;;7.10;4.75;;;25.40;51.20;;;;;;5071249;28;20198;-61
2023/03/09 07:50:58;;;;;;;6.82;4.45;;;25.40;51.20;;;;;;5070819;28;20195;-62
2023/03/09 07:53:28;;;;;;;5.68;4.30;;;25.40;51.20;;;;;;5070636;28;20198;-62
2023/03/09 07:56:03;;;;;;;7.05;4.30;;;25.40;51.20;;;;;;5070294;28;20214;-60
2023/03/09 07:58:34;;;;;;;6.72;4.20;;;25.40;51.20;;;;;;5066481;28;20190;-61
2023/03/09 08:01:08;;;;;;;7.63;3.83;;;25.40;51.20;;;;;;5062647;28;20198;-62
2023/03/09 08:03:38;;;;;;;5.88;3.85;;;25.40;51.20;;;;;;5069753;28;20214;-61
2023/03/09 08:06:09;;;;;;;7.05;4.13;;;25.40;51.20;;;;;;5070776;28;20221;-61
2023/03/09 08:08:40;;;;;;;7.32;4.53;;;25.30;51.10;;;;;;5071418;28;20712;-62
2023/03/09 08:11:11;;;;;;;6.65;4.18;;;25.30;51.00;;;;;;5070905;28;20551;-61
2023/03/09 08:13:42;;;;;;;5.68;4.22;;;25.30;51.00;;;;;;5070436;28;20572;-61
2023/03/09 08:16:15;;;;;;;6.65;4.07;;;25.30;51.00;;;;;;5070489;28;20225;-62
2023/03/09 08:18:45;;;;;;;8.02;3.92;;;25.30;51.00;;;;;;5074415;28;20190;-61
2023/03/09 08:21:17;;;;;;;6.18;4.20;;;25.30;51.00;;;;;;5074817;28;20194;-62
2023/03/09 08:23:48;;;;;;;7.43;4.28;;;25.30;51.00;;;;;;5075244;28;20199;-62
2023/03/09 08:26:19;;;;;;;6.57;3.85;;;25.20;51.00;;;;;;5074803;28;20225;-62
2023/03/09 08:28:50;;;;;;;6.00;4.35;;;25.30;51.00;;;;;;5075449;28;20203;-61
2023/03/09 08:31:23;;;;;;;5.93;3.67;;;25.20;51.00;;;;;;5074709;28;20206;-62
2023/03/09 08:33:54;;;;;;;5.90;3.95;;;25.20;51.00;;;;;;5074879;28;20380;-62
2023/03/09 08:36:25;;;;;;;4.78;3.60;;;25.20;51.00;;;;;;5074956;28;20222;-61
2023/03/09 08:38:56;;;;;;;5.30;3.83;;;25.20;51.00;;;;;;5074623;28;20557;-61
2023/03/09 08:41:26;;;;;;;5.28;3.78;;;25.20;51.00;;;;;;5074717;28;20195;-60
2023/03/09 08:43:57;;;;;;;4.82;3.85;;;25.10;50.90;;;;;;5074837;28;20201;-61
2023/03/09 08:46:30;;;;;;;4.57;3.35;;;25.10;51.00;;;;;;5074387;28;20301;-61
2023/03/09 08:49:00;;;;;;;6.60;3.85;;;25.10;51.00;;;;;;5074362;28;20673;-62
2023/03/09 08:51:31;;;;;;;5.25;3.72;;;25.10;51.00;;;;;;5074247;28;20199;-61
2023/03/09 08:54:02;;;;;;;5.65;3.58;;;25.10;51.00;;;;;;5074018;28;20202;-62
2023/03/09 08:56:32;;;;;;;5.43;3.53;;;25.10;51.00;;;;;;5073859;28;20238;-61
2023/03/09 08:59:03;;;;;;;6.85;3.65;;;25.10;51.00;;;;;;5074603;28;20191;-61
2023/03/09 09:01:36;;;;;;;4.22;3.42;;;25.00;50.90;;;;;;5072945;28;20199;-61
2023/03/09 09:04:06;;;;;;;4.28;3.22;;;25.00;50.90;;;;;;5075596;28;20639;-62
2023/03/09 09:06:37;;;;;;;4.70;3.40;;;25.00;50.90;;;;;;5073711;28;20227;-62
2023/03/09 09:09:08;;;;;;;6.50;3.70;;;25.00;50.90;;;;;;5072339;28;20305;-61
2023/03/09 09:11:39;;;;;;;6.00;3.40;;;25.00;50.90;;;;;;5073981;28;20206;-62
2023/03/09 09:14:09;;;;;;;5.13;3.75;;;25.00;50.90;;;;;;5073942;28;20198;-62
2023/03/09 09:16:42;;;;;;;5.28;3.60;;;24.90;50.90;;;;;;5074096;28;20199;-61
2023/03/09 09:19:12;;;;;;;4.60;3.38;;;24.90;50.90;;;;;;5073861;28;20194;-62
2023/03/09 09:21:43;;;;;;;5.63;3.53;;;24.90;51.00;;;;;;5073818;28;20195;-62
2023/03/09 09:24:14;;;;;;;4.75;3.42;;;24.90;51.00;;;;;;5073166;28;20202;-62
2023/03/09 09:26:44;;;;;;;5.32;3.72;;;24.90;51.00;;;;;;5072907;28;20222;-62
2023/03/09 09:29:15;;;;;;;5.70;3.28;;;24.90;51.00;;;;;;5073590;28;20199;-62
2023/03/09 09:31:48;;;;;;;4.13;3.05;;;24.90;51.00;;;;;;5073308;28;20199;-62
2023/03/09 09:34:18;;;;;;;4.90;3.05;;;24.80;51.00;;;;;;5072941;28;20202;-62
2023/03/09 09:36:49;;;;;;;4.47;3.35;;;24.80;51.00;;;;;;5072930;28;20207;-61
2023/03/09 09:39:20;;;;;;;3.47;2.65;;;24.80;51.00;;;;;;5072494;28;20281;-62
2023/03/09 09:41:55;;;;;;;5.32;3.33;;;24.80;51.00;;;;;;5073339;28;20332;-62
2023/03/09 09:44:28;;;;;;;5.75;3.28;;;24.80;51.00;;;;;;5073079;28;20208;-59
2023/03/09 09:47:04;;;;;;;4.38;3.08;;;24.70;51.00;;;;;;5072339;28;20470;-60
2023/03/09 09:49:40;;;;;;;3.65;2.70;;;24.70;51.00;;;;;;5070957;28;20202;-62
2023/03/09 09:52:24;;;;;;;4.75;2.88;;;24.80;51.00;;;;;;5073163;28;20191;-62
2023/03/09 09:54:59;;;;;;;3.90;2.75;;;24.70;51.00;;;;;;5072315;28;20210;-62
2023/03/09 09:57:40;;;;;;;4.28;2.67;;;24.70;51.00;;;;;;5072642;28;20201;-62
2023/03/09 10:00:16;;;;;;;7.10;2.90;;;24.70;51.10;;;;;;5072915;28;20281;-61
2023/03/09 10:02:58;;;;;;;4.07;2.55;;;24.70;51.10;;;;;;5072858;28;20198;-61
2023/03/09 10:05:37;;;;;;;4.07;2.80;;;24.70;51.10;;;;;;5072960;28;20225;-63
2023/03/09 10:08:24;;;;;;;4.30;2.55;;;24.70;51.10;;;;;;5072800;28;20229;-62
2023/03/09 10:10:56;;;;;;;4.38;2.65;;;24.60;51.10;;;;;;5072927;28;20236;-62
2023/03/09 10:13:33;;;;;;;3.70;2.70;;;24.70;51.10;;;;;;5072527;28;20195;-62
2023/03/09 10:16:08;;;;;;;4.00;2.75;;;24.60;51.10;;;;;;5072293;28;20653;-62
2023/03/09 10:18:44;;;;;;;4.45;2.97;;;24.60;51.10;;;;;;5072843;28;20202;-62
2023/03/09 10:21:21;;;;;;;5.15;2.75;;;24.60;51.10;;;;;;5072555;28;20797;-62
2023/03/09 10:23:52;;;;;;;3.72;2.58;;;24.60;51.10;;;;;;5072673;28;20195;-60
2023/03/09 10:26:35;;;;;;;3.70;2.60;;;24.50;51.10;;;;;;5072500;28;20223;-60
2023/03/09 10:29:11;;;;;;;3.70;2.88;;;24.50;51.10;;;;;;5072783;28;20729;-60
2023/03/09 10:31:49;;;;;;;3.17;2.47;;;24.50;51.10;;;;;;5072129;28;20195;-60
2023/03/09 10:34:24;;;;;;;2.67;2.22;;;24.50;51.20;;;;;;5072301;28;20198;-62
2023/03/09 10:37:04;;;;;;;3.97;2.58;;;24.50;51.20;;;;;;5072278;28;20229;-63
2023/03/09 10:39:41;;;;;;;4.78;2.70;;;24.50;51.20;;;;;;5071920;28;20237;-61
2023/03/09 10:42:21;;;;;;;2.90;2.38;;;24.50;51.20;;;;;;5072548;28;20194;-62
2023/03/09 10:45:04;;;;;;;3.13;2.28;;;24.50;51.20;;;;;;5072155;28;20215;-60
2023/03/09 10:47:59;;;;;;;2.83;2.33;;;24.50;51.20;;;;;;5072336;28;20222;-59
2023/03/09 10:50:34;;;;;;;3.05;2.58;;;24.50;51.10;;;;;;5072108;28;20191;-59
2023/03/09 10:53:25;;;;;;;2.72;2.35;;;24.40;51.10;;;;;;5071361;28;20398;-61
2023/03/09 10:55:59;;;;;;;3.67;2.10;;;24.40;51.10;;;;;;5071765;28;20223;-61
2023/03/09 10:58:30;;;;;;;2.50;2.13;;;24.40;51.10;;;;;;5071912;28;20686;-60
2023/03/09 11:01:03;;;;;;;4.00;2.50;;;24.40;51.10;;;;;;5081063;28;20193;-60
2023/03/09 11:03:39;;;;;;;2.90;2.40;;;24.40;51.20;;;;;;5071869;28;20651;-61
2023/03/09 11:06:38;;;;;;;3.22;2.20;;;24.40;51.20;;;;;;5071880;28;20221;-60
2023/03/09 11:09:15;;;;;;;3.78;2.42;;;24.30;51.10;;;;;;5071799;28;20234;-60
2023/03/09 11:11:47;;;;;;;3.72;2.08;;;24.30;51.10;;;;;;5071939;28;20183;-61
2023/03/09 11:14:27;;;;;;;3.20;2.35;;;24.30;51.10;;;;;;5070711;28;20198;-61
2023/03/09 11:16:59;;;;;;;3.45;2.45;;;24.30;51.10;;;;;;5070305;28;20264;-61
2023/03/09 11:19:30;;;;;;;2.30;2.10;;;24.30;51.20;;;;;;5069928;28;20209;-61
2023/03/09 11:22:11;;;;;;;3.70;2.20;;;24.30;51.20;;;;;;5067830;28;20726;-60
2023/03/09 11:24:45;;;;;;;3.15;1.98;;;24.30;51.10;;;;;;5067598;28;20207;-60
2023/03/09 11:27:21;;;;;;;3.35;2.20;;;24.30;51.10;;;;;;5070068;28;20659;-61
2023/03/09 11:29:59;;;;;;;2.80;1.95;;;24.30;51.10;;;;;;5070751;28;20193;-60
2023/03/09 11:32:29;;;;;;;3.78;2.15;;;24.30;51.10;;;;;;5068601;28;20373;-59
2023/03/09 11:35:02;;;;;;;3.13;1.92;;;24.30;51.10;;;;;;5067229;28;20211;-61
2023/03/09 11:37:40;;;;;;;3.30;1.90;;;24.30;51.10;;;;;;5070179;28;20201;-61
2023/03/09 11:40:18;;;;;;;2.35;2.00;;;24.20;51.10;;;;;;5068995;28;20233;-61
2023/03/09 11:42:52;;;;;;;3.17;1.85;;;24.20;51.20;;;;;;5051862;28;20206;-60
2023/03/09 11:45:24;;;;;;;2.35;1.90;;;24.20;51.20;;;;;;5052333;28;20216;-59
2023/03/09 11:47:59;;;;;;;2.78;1.95;;;24.20;51.20;;;;;;5050878;28;20227;-59
2023/03/09 11:50:35;;;;;;;2.28;1.98;;;24.20;51.20;;;;;;5050846;28;20195;-59
2023/03/09 11:53:15;;;;;;;2.22;1.65;;;24.20;51.20;;;;;;5051413;28;20549;-60
2023/03/09 11:55:48;;;;;;;2.65;1.58;;;24.20;51.20;;;;;;5071344;28;20678;-60
2023/03/09 11:58:23;;;;;;;3.53;2.20;;;24.20;51.20;;;;;;5071068;28;20800;-59
2023/03/09 12:01:01;;;;;;;1.70;1.40;;;24.20;51.20;;;;;;5070244;28;20190;-61
2023/03/09 12:03:34;;;;;;;2.15;1.52;;;24.20;51.20;;;;;;5070843;28;20651;-59
2023/03/09 12:06:18;;;;;;;2.17;1.70;;;24.20;51.20;;;;;;5070961;28;20215;-61
2023/03/09 12:08:51;;;;;;;2.45;1.73;;;24.20;51.20;;;;;;5071368;28;20225;-59
2023/03/09 12:11:26;;;;;;;2.78;1.70;;;24.20;51.20;;;;;;5071199;28;20198;-60
2023/03/09 12:13:59;;;;;;;1.67;1.45;;;24.10;51.20;;;;;;5071234;28;20669;-60
2023/03/09 12:16:33;;;;;;;1.75;1.30;;;24.20;51.20;;;;;;5071087;28;20222;-60
2023/03/09 12:19:07;;;;;;;1.70;1.58;;;24.10;51.20;;;;;;5070966;28;20207;-60
2023/03/09 12:21:39;;;;;;;1.90;1.50;;;24.10;51.20;;;;;;5071027;28;20206;-60
2023/03/09 12:24:32;;;;;;;2.08;1.60;;;24.10;51.20;;;;;;5070960;28;20195;-61
2023/03/09 12:27:07;;;;;;;2.13;1.65;;;24.10;51.30;;;;;;5070794;28;20210;-59
2023/03/09 12:29:41;;;;;;;1.70;1.40;;;24.10;51.20;;;;;;5071328;28;20225;-60
2023/03/09 12:32:42;;;;;;;1.98;1.58;;;24.10;51.30;;;;;;5071109;28;20277;-61
2023/03/09 12:35:37;;;;;;;2.28;1.65;;;24.10;51.30;;;;;;5071134;28;20600;-61
2023/03/09 12:38:19;;;;;;;1.77;1.45;;;24.10;51.30;;;;;;5070627;28;20206;-60
2023/03/09 12:40:52;;;;;;;1.65;1.40;;;24.10;51.30;;;;;;5070384;28;20198;-60
2023/03/09 12:43:52;;;;;;;1.63;1.30;;;24.10;51.30;;;;;;5070809;28;20203;-60
2023/03/09 12:46:53;;;;;;;2.25;1.33;;;24.00;51.30;;;;;;5070582;28;20222;-60
2023/03/09 12:49:27;;;;;;;1.55;1.30;;;24.10;51.30;;;;;;5028311;28;20251;-59
2023/03/09 12:52:24;;;;;;;2.13;1.67;;;24.00;51.20;;;;;;5064119;28;20199;-59
2023/03/09 12:55:03;;;;;;;2.30;1.60;;;24.00;51.20;;;;;;5067500;28;20250;-61
2023/03/09 12:57:36;;;;;;;1.75;1.20;;;24.00;51.20;;;;;;5070318;28;20617;-60
2023/03/09 13:00:31;;;;;;;1.58;1.40;;;24.00;51.20;;;;;;5070011;28;20207;-60
2023/03/09 13:03:08;;;;;;;1.60;1.27;;;24.00;51.30;;;;;;5063249;28;20284;-61
2023/03/09 13:05:46;;;;;;;1.65;1.20;;;24.00;51.30;;;;;;5074330;28;20257;-60
2023/03/09 13:08:31;;;;;;;2.00;1.58;;;24.00;51.30;;;;;;5074002;28;20218;-61
2023/03/09 13:11:37;;;;;;;2.40;1.33;;;24.00;51.40;;;;;;5073939;28;20229;-60
2023/03/09 13:14:15;;;;;;;1.77;1.25;;;23.90;51.40;;;;;;5074471;28;20202;-60
2023/03/09 13:16:56;;;;;;;2.08;1.17;;;24.00;51.40;;;;;;5074206;28;20198;-60
2023/03/09 13:19:56;;;;;;;1.40;1.30;;;24.00;51.40;;;;;;5074265;28;20207;-61
2023/03/09 13:22:42;;;;;;;1.30;1.15;;;23.90;51.40;;;;;;5074432;28;20611;-61